Time;durP1;ratioP1;P1;durP2;ratioP2;P2;SDS_P1;SDS_P2;PMS_P1;PMS_P2;Temp;Humidity;BMP_temperature;BMP_pressure;BME280_temperature;BME280_humidity;BME280_pressure;Samples;Min_cycle;Max_cycle;Signal;HPM_P1;HPM_P2
2023/01/08 00:01:54;;;;;;;5.75;1.98;;;8.30;99.90;;;;;;5023992;28;20503;-77
2023/01/08 00:04:21;;;;;;;7.43;2.65;;;8.30;99.90;;;;;;5005741;28;20072;-77
2023/01/08 00:06:48;;;;;;;5.55;1.88;;;8.40;99.90;;;;;;5024920;28;20053;-78
2023/01/08 00:09:14;;;;;;;3.30;1.20;;;8.40;99.90;;;;;;5023317;28;20419;-77
2023/01/08 00:11:43;;;;;;;8.90;1.92;;;8.40;99.90;;;;;;5023794;28;20107;-77
2023/01/08 00:14:10;;;;;;;6.57;1.70;;;8.40;99.90;;;;;;5007375;28;20049;-77
2023/01/08 00:16:37;;;;;;;3.55;1.30;;;8.40;99.90;;;;;;5007271;28;20128;-77
2023/01/08 00:19:03;;;;;;;4.70;1.35;;;8.40;99.90;;;;;;5006171;28;20046;-77
2023/01/08 00:21:30;;;;;;;3.60;1.42;;;8.40;99.90;;;;;;4991141;28;20062;-77
2023/01/08 00:23:57;;;;;;;4.72;1.63;;;8.40;99.90;;;;;;5022319;28;20056;-77
2023/01/08 00:26:24;;;;;;;3.75;1.58;;;8.40;99.90;;;;;;5024091;28;20164;-77
2023/01/08 00:28:50;;;;;;;5.03;1.40;;;8.50;99.90;;;;;;5022675;28;20054;-77
2023/01/08 00:31:17;;;;;;;4.18;1.25;;;8.50;99.90;;;;;;5023178;28;20061;-78
2023/01/08 00:33:44;;;;;;;1.55;0.95;;;8.40;99.90;;;;;;5006041;28;20046;-77
2023/01/08 00:36:12;;;;;;;3.53;1.20;;;8.40;99.90;;;;;;5021989;28;20119;-81
2023/01/08 00:38:39;;;;;;;6.05;2.00;;;8.40;99.90;;;;;;5006802;28;20054;-81
2023/01/08 00:41:06;;;;;;;3.08;1.50;;;8.30;99.90;;;;;;5006190;28;20053;-81
2023/01/08 00:43:33;;;;;;;4.05;1.17;;;8.20;99.90;;;;;;4990497;28;20081;-80
2023/01/08 00:46:00;;;;;;;2.67;1.00;;;8.10;99.90;;;;;;5024130;28;20049;-80
2023/01/08 00:48:27;;;;;;;2.10;0.98;;;8.00;99.90;;;;;;5006206;28;20263;-79
2023/01/08 00:50:53;;;;;;;2.92;1.35;;;8.00;99.90;;;;;;5022137;28;20061;-79
2023/01/08 00:53:20;;;;;;;1.80;0.80;;;7.90;99.90;;;;;;5006239;28;20448;-79
2023/01/08 00:55:47;;;;;;;2.15;0.68;;;7.90;99.90;;;;;;5005738;28;20057;-79
2023/01/08 00:58:14;;;;;;;2.33;1.00;;;7.90;99.90;;;;;;5022399;28;20132;-78
2023/01/08 01:00:41;;;;;;;3.03;0.82;;;7.90;99.90;;;;;;4989925;28;20088;-78
2023/01/08 01:03:07;;;;;;;3.42;1.10;;;7.90;99.90;;;;;;5006130;28;20139;-78
2023/01/08 01:05:34;;;;;;;3.50;1.00;;;7.80;99.90;;;;;;5004377;28;20095;-78
2023/01/08 01:08:01;;;;;;;2.75;0.95;;;7.80;99.90;;;;;;5021992;28;20049;-79
2023/01/08 01:10:28;;;;;;;2.33;1.00;;;7.80;99.90;;;;;;5024107;28;20059;-79
2023/01/08 01:12:54;;;;;;;4.88;2.13;;;7.80;99.90;;;;;;5022510;28;20064;-78
2023/01/08 01:15:21;;;;;;;2.22;1.40;;;7.80;99.90;;;;;;5023382;28;20133;-78
2023/01/08 01:17:48;;;;;;;3.97;1.40;;;7.80;99.90;;;;;;5005624;28;20189;-78
2023/01/08 01:20:15;;;;;;;4.38;1.85;;;7.80;99.90;;;;;;5022725;28;20063;-78
2023/01/08 01:22:42;;;;;;;5.05;1.85;;;7.80;99.90;;;;;;5022691;28;20092;-78
2023/01/08 01:25:09;;;;;;;3.85;1.45;;;7.80;99.90;;;;;;5021767;28;20045;-78
2023/01/08 01:27:35;;;;;;;5.47;1.75;;;7.80;99.90;;;;;;5023051;28;20523;-78
2023/01/08 01:30:03;;;;;;;3.53;1.27;;;7.90;99.90;;;;;;5005652;28;20164;-78
2023/01/08 01:32:30;;;;;;;3.60;1.55;;;7.90;99.90;;;;;;5005304;28;20049;-77
2023/01/08 01:34:56;;;;;;;7.15;1.50;;;7.90;99.90;;;;;;4996154;28;20053;-78
2023/01/08 01:37:23;;;;;;;3.95;1.55;;;8.00;99.90;;;;;;5020171;28;20050;-78
2023/01/08 01:39:50;;;;;;;5.00;1.60;;;8.00;99.90;;;;;;5004529;28;20496;-78
2023/01/08 01:45:04;;;;;;;3.30;1.40;;;8.10;99.90;;;;;;5008028;28;20132;-78
2023/01/08 01:47:37;;;;;;;8.13;1.75;;;8.10;99.90;;;;;;5021153;28;20137;-77
2023/01/08 01:50:09;;;;;;;4.95;1.73;;;8.20;99.90;;;;;;5020505;28;20268;-77
2023/01/08 01:52:40;;;;;;;4.57;1.27;;;8.20;99.90;;;;;;5005117;28;20080;-77
2023/01/08 01:55:09;;;;;;;3.67;1.55;;;8.20;99.90;;;;;;5021789;28;20065;-77
2023/01/08 01:57:35;;;;;;;2.40;1.05;;;8.20;99.90;;;;;;5005040;28;20053;-77
2023/01/08 02:00:06;;;;;;;5.63;1.92;;;8.20;99.90;;;;;;5005112;28;20065;-77
2023/01/08 02:02:34;;;;;;;5.45;1.60;;;8.30;99.90;;;;;;5005289;28;20568;-77
2023/01/08 02:05:01;;;;;;;4.90;1.45;;;8.40;99.90;;;;;;5003661;28;20047;-77
2023/01/08 02:07:50;;;;;;;5.13;1.48;;;8.40;99.90;;;;;;5004731;28;20084;-77
2023/01/08 02:10:36;;;;;;;4.43;1.88;;;8.40;99.90;;;;;;5013992;28;20099;-77
2023/01/08 02:13:26;;;;;;;4.00;1.73;;;8.30;99.90;;;;;;5021489;28;20124;-77
2023/01/08 02:16:00;;;;;;;5.10;1.70;;;8.30;99.90;;;;;;4988352;28;20140;-77
2023/01/08 02:18:31;;;;;;;3.85;1.50;;;8.30;99.90;;;;;;5005737;28;20053;-77
2023/01/08 02:21:08;;;;;;;4.13;1.60;;;8.30;99.90;;;;;;5004154;28;20574;-77
2023/01/08 02:24:08;;;;;;;7.45;1.73;;;8.40;99.90;;;;;;4988080;28;20451;-77
2023/01/08 02:26:34;;;;;;;3.67;1.70;;;8.40;99.90;;;;;;5020283;28;20505;-77
2023/01/08 02:29:09;;;;;;;5.50;2.00;;;8.40;99.90;;;;;;5004578;28;20084;-77
2023/01/08 02:31:38;;;;;;;5.00;1.60;;;8.50;99.90;;;;;;5004944;28;20084;-77
2023/01/08 02:34:05;;;;;;;3.50;1.65;;;8.50;99.90;;;;;;5018209;28;20149;-78
2023/01/08 02:36:36;;;;;;;3.97;1.50;;;8.50;99.90;;;;;;5010907;28;20136;-77
2023/01/08 02:39:37;;;;;;;3.28;1.35;;;8.60;99.90;;;;;;5022612;28;20068;-77
2023/01/08 02:42:23;;;;;;;6.13;1.92;;;8.60;99.90;;;;;;5024311;28;20057;-77
2023/01/08 02:44:57;;;;;;;6.10;1.73;;;8.60;99.90;;;;;;5024305;28;20124;-77
2023/01/08 02:47:26;;;;;;;4.97;1.88;;;8.60;99.90;;;;;;5006451;28;20108;-77
2023/01/08 02:49:58;;;;;;;3.38;2.08;;;8.60;99.90;;;;;;5022146;28;20049;-77
2023/01/08 02:52:25;;;;;;;4.72;1.40;;;8.60;99.90;;;;;;5022815;28;20054;-77
2023/01/08 02:54:52;;;;;;;4.65;1.60;;;8.60;99.90;;;;;;4990040;28;20052;-78
2023/01/08 02:57:18;;;;;;;4.95;1.50;;;8.50;99.90;;;;;;5006090;28;20081;-77
2023/01/08 02:59:45;;;;;;;7.43;2.22;;;8.50;99.90;;;;;;5006282;28;20144;-77
2023/01/08 03:02:12;;;;;;;2.25;1.08;;;8.50;99.90;;;;;;5006079;28;20437;-77
2023/01/08 03:04:42;;;;;;;2.53;1.00;;;8.50;99.90;;;;;;5005283;28;20128;-77
2023/01/08 03:07:09;;;;;;;3.40;1.33;;;8.50;99.90;;;;;;5022680;28;20075;-77
2023/01/08 03:09:36;;;;;;;4.35;1.30;;;8.40;99.90;;;;;;4989269;28;20132;-77
2023/01/08 03:12:10;;;;;;;2.63;1.15;;;8.40;99.90;;;;;;5006536;28;20116;-77
2023/01/08 03:14:44;;;;;;;2.75;0.95;;;8.40;99.90;;;;;;5022177;28;20064;-77
2023/01/08 03:17:16;;;;;;;4.47;1.27;;;8.40;99.90;;;;;;5006023;28;20059;-77
2023/01/08 03:19:52;;;;;;;2.67;1.00;;;8.40;99.90;;;;;;5020696;28;20137;-77
2023/01/08 03:22:19;;;;;;;3.10;1.13;;;8.40;99.90;;;;;;4993265;28;20437;-78
2023/01/08 03:24:47;;;;;;;1.85;1.08;;;8.30;99.90;;;;;;5025873;28;20144;-77
2023/01/08 03:27:16;;;;;;;3.13;0.93;;;8.20;99.90;;;;;;5009672;28;20049;-78
2023/01/08 03:29:45;;;;;;;2.13;1.00;;;8.20;99.90;;;;;;5010362;28;20057;-77
2023/01/08 03:32:13;;;;;;;2.25;0.90;;;8.10;99.90;;;;;;4993822;28;20171;-77
2023/01/08 03:34:40;;;;;;;3.58;0.90;;;8.00;99.90;;;;;;5024843;28;20056;-77
2023/01/08 03:37:07;;;;;;;2.65;0.82;;;8.00;99.90;;;;;;5009925;28;20045;-77
2023/01/08 03:39:43;;;;;;;2.33;0.80;;;8.00;99.90;;;;;;5009122;28;20132;-77
2023/01/08 03:42:11;;;;;;;2.25;1.10;;;7.90;99.90;;;;;;5009886;28;20133;-77
2023/01/08 03:44:38;;;;;;;2.80;1.08;;;7.90;99.90;;;;;;5009433;28;20140;-77
2023/01/08 03:47:04;;;;;;;3.25;1.00;;;7.90;99.90;;;;;;5013755;28;20386;-77
2023/01/08 03:49:31;;;;;;;2.42;0.95;;;7.90;99.90;;;;;;5004626;28;20120;-78
2023/01/08 03:51:58;;;;;;;2.63;1.92;;;7.90;99.90;;;;;;5005658;28;20148;-77
2023/01/08 03:54:28;;;;;;;3.10;1.35;;;7.90;99.90;;;;;;4998693;28;20129;-77
2023/01/08 03:56:55;;;;;;;2.47;0.95;;;7.90;99.90;;;;;;5025454;28;20061;-77
2023/01/08 03:59:21;;;;;;;4.53;1.65;;;7.90;99.90;;;;;;5025712;28;20057;-77
2023/01/08 04:01:49;;;;;;;4.60;1.10;;;8.00;99.90;;;;;;5009224;28;20140;-78
2023/01/08 04:04:16;;;;;;;5.10;1.90;;;8.00;99.90;;;;;;5025687;28;20046;-78
2023/01/08 04:06:42;;;;;;;2.55;1.15;;;8.00;99.90;;;;;;5008924;28;20050;-80
2023/01/08 04:09:09;;;;;;;2.45;1.17;;;8.00;99.90;;;;;;5024753;28;20052;-80
2023/01/08 04:11:36;;;;;;;4.55;1.33;;;7.90;99.90;;;;;;5025386;28;20096;-79
2023/01/08 04:14:03;;;;;;;1.90;0.73;;;7.90;99.90;;;;;;5025685;28;20045;-80
2023/01/08 04:16:30;;;;;;;2.03;0.90;;;7.80;99.90;;;;;;5025407;28;20529;-79
2023/01/08 04:18:57;;;;;;;3.13;1.10;;;7.80;99.90;;;;;;5008336;28;20061;-79
2023/01/08 04:21:24;;;;;;;2.63;1.00;;;7.70;99.90;;;;;;5026231;28;20142;-78
2023/01/08 04:23:50;;;;;;;2.95;1.00;;;7.60;99.90;;;;;;5024749;28;20053;-78
2023/01/08 04:26:17;;;;;;;2.78;0.90;;;7.60;99.90;;;;;;5025162;28;20064;-78
2023/01/08 04:28:44;;;;;;;2.70;1.10;;;7.50;99.90;;;;;;5025929;28;20053;-79
2023/01/08 04:31:10;;;;;;;2.28;0.90;;;7.50;99.90;;;;;;5025178;28;20053;-78
2023/01/08 04:33:37;;;;;;;3.42;0.98;;;7.40;99.90;;;;;;5025157;28;20045;-78
2023/01/08 04:36:04;;;;;;;3.20;1.00;;;7.40;99.90;;;;;;5025660;28;20564;-78
2023/01/08 04:38:31;;;;;;;0.77;0.55;;;7.40;99.90;;;;;;5008659;28;20045;-77
2023/01/08 04:40:59;;;;;;;0.90;0.63;;;7.50;99.90;;;;;;5026245;28;20161;-78
2023/01/08 04:43:26;;;;;;;1.48;0.95;;;7.50;99.90;;;;;;5025141;28;20148;-78
2023/01/08 04:45:59;;;;;;;4.50;1.45;;;7.60;99.90;;;;;;5008309;28;20350;-78
2023/01/08 04:48:27;;;;;;;4.22;1.75;;;7.70;99.90;;;;;;5008334;28;20057;-78
2023/01/08 04:50:54;;;;;;;4.05;1.30;;;7.80;99.90;;;;;;5007891;28;20061;-79
2023/01/08 04:53:20;;;;;;;5.90;2.15;;;7.90;99.90;;;;;;5023870;28;20401;-81
2023/01/08 04:55:47;;;;;;;3.40;1.02;;;7.70;99.90;;;;;;5008065;28;20602;-81
2023/01/08 04:58:14;;;;;;;3.58;1.00;;;7.40;99.90;;;;;;5009096;28;20433;-80
2023/01/08 05:00:41;;;;;;;5.60;1.13;;;7.10;99.90;;;;;;5008640;28;20175;-80
2023/01/08 05:03:07;;;;;;;1.75;0.70;;;6.90;99.90;;;;;;5026301;28;20053;-81
2023/01/08 05:05:34;;;;;;;3.22;0.95;;;6.70;99.90;;;;;;5024890;28;20103;-80
2023/01/08 05:08:01;;;;;;;1.73;0.70;;;6.60;99.90;;;;;;5023618;28;20089;-79
2023/01/08 05:10:28;;;;;;;0.55;0.55;;;6.60;99.90;;;;;;5025358;28;20049;-79
2023/01/08 05:12:58;;;;;;;0.68;0.40;;;6.60;99.90;;;;;;5025991;28;20050;-79
2023/01/08 05:15:25;;;;;;;1.55;0.90;;;6.50;99.90;;;;;;5007749;28;20100;-79
2023/01/08 05:18:05;;;;;;;2.35;0.50;;;6.60;99.90;;;;;;5024366;28;20192;-78
2023/01/08 05:20:32;;;;;;;1.20;0.45;;;6.60;99.90;;;;;;5022997;28;20045;-78
2023/01/08 05:22:58;;;;;;;0.50;0.40;;;6.70;99.90;;;;;;5007209;28;20049;-79
2023/01/08 05:25:25;;;;;;;1.40;0.50;;;6.70;99.90;;;;;;5024270;28;20144;-80
2023/01/08 05:27:52;;;;;;;1.63;0.60;;;6.80;99.90;;;;;;5024208;28;20133;-80
2023/01/08 05:30:19;;;;;;;0.75;0.50;;;6.80;99.90;;;;;;5008230;28;20081;-80
2023/01/08 05:32:45;;;;;;;1.00;0.75;;;6.80;99.90;;;;;;5007365;28;20053;-80
2023/01/08 05:35:12;;;;;;;2.83;1.00;;;6.90;99.90;;;;;;5023054;28;20045;-80
2023/01/08 05:37:39;;;;;;;1.77;0.95;;;6.90;99.90;;;;;;5006884;28;20507;-79
2023/01/08 05:40:06;;;;;;;4.03;0.82;;;6.90;99.90;;;;;;5023901;28;20489;-79
2023/01/08 05:42:34;;;;;;;0.85;0.50;;;7.00;99.90;;;;;;5007606;28;20061;-79
2023/01/08 05:45:02;;;;;;;1.80;0.80;;;7.00;99.90;;;;;;5006829;28;20104;-79
2023/01/08 05:47:30;;;;;;;2.80;0.60;;;7.00;99.90;;;;;;4989181;28;20057;-78
2023/01/08 05:49:57;;;;;;;1.15;0.73;;;7.00;99.90;;;;;;5019499;28;20466;-78
2023/01/08 05:52:24;;;;;;;0.93;0.40;;;7.00;99.90;;;;;;5020219;28;20138;-78
2023/01/08 05:54:50;;;;;;;1.45;0.70;;;7.10;99.90;;;;;;5034486;28;20049;-79
2023/01/08 05:57:17;;;;;;;0.60;0.45;;;7.10;99.90;;;;;;5023327;28;20515;-77
2023/01/08 05:59:44;;;;;;;0.52;0.50;;;7.10;99.90;;;;;;5023504;28;20045;-78
2023/01/08 06:02:11;;;;;;;0.30;0.30;;;7.10;99.90;;;;;;5024031;28;20107;-78
2023/01/08 06:04:38;;;;;;;0.55;0.40;;;7.10;99.90;;;;;;5020636;28;20136;-78
2023/01/08 06:07:04;;;;;;;0.55;0.40;;;7.20;99.90;;;;;;5021226;28;20075;-77
2023/01/08 06:09:31;;;;;;;0.55;0.43;;;7.20;99.90;;;;;;5001091;28;20048;-78
2023/01/08 06:11:58;;;;;;;3.00;0.75;;;7.20;99.90;;;;;;5021477;28;20064;-78
2023/01/08 06:14:25;;;;;;;0.90;0.70;;;7.20;99.90;;;;;;5005133;28;20076;-77
2023/01/08 06:16:51;;;;;;;0.85;0.50;;;7.20;99.90;;;;;;5010713;28;20057;-77
2023/01/08 06:19:18;;;;;;;0.47;0.43;;;7.20;99.90;;;;;;5019713;28;20045;-77
2023/01/08 06:21:45;;;;;;;1.15;0.52;;;7.20;99.90;;;;;;5018739;28;20068;-77
2023/01/08 06:24:11;;;;;;;0.88;0.30;;;7.20;99.90;;;;;;5019702;28;20041;-77
2023/01/08 06:26:38;;;;;;;1.15;0.40;;;7.10;99.90;;;;;;4997773;28;20045;-77
2023/01/08 06:29:05;;;;;;;1.50;0.40;;;7.00;99.90;;;;;;5003903;28;20101;-77
2023/01/08 06:31:31;;;;;;;0.40;0.40;;;7.00;99.90;;;;;;5000645;28;20132;-77
2023/01/08 06:33:58;;;;;;;0.55;0.40;;;6.90;99.90;;;;;;5011690;28;20055;-77
2023/01/08 06:36:25;;;;;;;0.70;0.40;;;6.90;99.90;;;;;;4997633;28;20107;-77
2023/01/08 06:38:52;;;;;;;0.43;0.40;;;6.90;99.90;;;;;;5026154;28;20486;-77
2023/01/08 06:41:18;;;;;;;0.57;0.50;;;6.90;99.90;;;;;;5000165;28;20049;-77
2023/01/08 06:43:45;;;;;;;1.13;0.50;;;6.90;99.90;;;;;;5017650;28;20052;-76
2023/01/08 06:46:13;;;;;;;0.45;0.45;;;6.90;99.90;;;;;;4985312;28;20053;-77
2023/01/08 06:48:40;;;;;;;0.82;0.63;;;6.90;99.90;;;;;;4993791;28;20664;-76
2023/01/08 06:51:07;;;;;;;0.88;0.50;;;6.90;99.90;;;;;;4998943;28;20341;-76
2023/01/08 06:53:33;;;;;;;0.68;0.35;;;7.00;99.90;;;;;;4993049;28;20155;-77
2023/01/08 06:56:02;;;;;;;0.75;0.50;;;7.00;99.90;;;;;;5017005;28;20441;-77
2023/01/08 06:58:29;;;;;;;0.82;0.60;;;7.00;99.90;;;;;;5001854;28;20292;-76
2023/01/08 07:00:57;;;;;;;2.50;0.70;;;7.00;99.90;;;;;;5014561;28;20489;-76
2023/01/08 07:03:24;;;;;;;0.63;0.30;;;7.00;99.90;;;;;;5010234;28;20049;-76
2023/01/08 07:05:51;;;;;;;0.98;0.43;;;7.10;99.90;;;;;;5015052;28;20053;-77
2023/01/08 07:08:18;;;;;;;0.45;0.38;;;7.10;99.90;;;;;;5010755;28;20141;-77
2023/01/08 07:10:45;;;;;;;1.02;0.50;;;7.10;99.90;;;;;;5007984;28;20848;-78
2023/01/08 07:13:12;;;;;;;0.80;0.52;;;7.10;99.90;;;;;;4996546;28;20045;-78
2023/01/08 07:15:39;;;;;;;1.17;0.60;;;7.20;99.90;;;;;;4986925;28;20705;-78
2023/01/08 07:18:06;;;;;;;1.77;0.80;;;7.20;99.90;;;;;;5016997;28;20054;-78
2023/01/08 07:20:33;;;;;;;1.98;0.60;;;7.20;99.90;;;;;;4999547;28;20416;-77
2023/01/08 07:23:01;;;;;;;2.20;0.70;;;7.20;99.90;;;;;;5016573;28;20053;-78
2023/01/08 07:25:28;;;;;;;2.15;0.80;;;7.20;99.90;;;;;;4999354;28;20608;-77
2023/01/08 07:27:55;;;;;;;1.85;0.70;;;7.20;99.90;;;;;;5016948;28;20049;-78
2023/01/08 07:30:22;;;;;;;2.40;0.80;;;7.30;99.90;;;;;;4994847;28;20233;-77
2023/01/08 07:33:02;;;;;;;2.30;0.60;;;7.30;99.90;;;;;;4973588;28;20042;-78
2023/01/08 07:35:29;;;;;;;2.22;0.70;;;7.30;99.90;;;;;;4999699;28;20049;-79
2023/01/08 07:37:55;;;;;;;2.00;0.70;;;7.30;99.90;;;;;;5012194;28;20093;-79
2023/01/08 07:40:22;;;;;;;2.53;0.50;;;7.40;99.90;;;;;;5016696;28;20086;-79
2023/01/08 07:43:02;;;;;;;2.53;0.85;;;7.30;99.90;;;;;;4984732;28;20397;-78
2023/01/08 07:45:29;;;;;;;1.00;0.70;;;7.30;99.90;;;;;;4991503;28;20183;-78
2023/01/08 07:47:57;;;;;;;1.00;0.57;;;7.30;99.90;;;;;;5008620;28;20096;-75
2023/01/08 07:50:24;;;;;;;1.05;0.60;;;7.30;99.90;;;;;;4976916;28;20069;-74
2023/01/08 07:52:50;;;;;;;0.80;0.50;;;7.20;99.90;;;;;;4995679;28;20200;-74
2023/01/08 07:55:17;;;;;;;0.98;0.50;;;7.20;99.90;;;;;;5013894;28;20045;-74
2023/01/08 07:57:44;;;;;;;0.82;0.50;;;7.10;99.90;;;;;;5002048;28;20056;-75
2023/01/08 08:00:11;;;;;;;0.40;0.40;;;7.10;99.90;;;;;;5004781;28;20775;-75
2023/01/08 08:02:38;;;;;;;1.10;0.55;;;7.00;99.90;;;;;;5005281;28;20049;-74
2023/01/08 08:05:05;;;;;;;1.20;0.60;;;6.90;99.90;;;;;;5011874;28;20103;-74
2023/01/08 08:07:32;;;;;;;1.33;0.75;;;6.90;99.90;;;;;;4992896;28;20068;-75
2023/01/08 08:09:59;;;;;;;1.83;0.70;;;6.90;99.90;;;;;;5018706;28;20079;-75
2023/01/08 08:12:26;;;;;;;1.98;1.20;;;6.90;99.90;;;;;;5017506;28;20123;-74
2023/01/08 08:14:53;;;;;;;2.47;1.17;;;6.90;99.90;;;;;;5017124;28;20705;-74
2023/01/08 08:17:20;;;;;;;3.58;1.33;;;6.90;99.90;;;;;;5018016;28;20051;-74
2023/01/08 08:19:46;;;;;;;3.35;0.88;;;7.00;99.90;;;;;;4984524;28;20041;-74
2023/01/08 08:22:13;;;;;;;1.27;0.68;;;7.00;99.90;;;;;;5006768;28;20060;-74
2023/01/08 08:24:40;;;;;;;2.35;0.85;;;7.00;99.90;;;;;;5016107;28;20041;-74
2023/01/08 08:27:07;;;;;;;1.13;0.70;;;7.00;99.90;;;;;;5008951;28;20500;-74
2023/01/08 08:29:33;;;;;;;1.52;0.70;;;7.00;99.90;;;;;;5009576;28;20046;-74
2023/01/08 08:32:00;;;;;;;1.17;0.65;;;7.00;99.90;;;;;;5020033;28;20049;-74
2023/01/08 08:34:27;;;;;;;0.88;0.52;;;7.00;99.90;;;;;;5012529;28;20061;-74
2023/01/08 08:36:54;;;;;;;1.15;0.52;;;7.00;99.90;;;;;;5009814;28;20079;-74
2023/01/08 08:39:21;;;;;;;0.98;0.57;;;7.00;99.90;;;;;;4976509;28;21102;-73
2023/01/08 08:41:47;;;;;;;2.20;0.77;;;7.00;99.90;;;;;;5014829;28;20049;-74
2023/01/08 08:44:14;;;;;;;1.08;0.60;;;7.00;99.90;;;;;;5015367;28;20887;-73
2023/01/08 08:46:41;;;;;;;1.00;0.60;;;7.00;99.90;;;;;;5017244;28;20045;-74
2023/01/08 08:49:08;;;;;;;1.48;0.52;;;7.00;99.90;;;;;;5011501;28;20053;-73
2023/01/08 08:51:35;;;;;;;1.73;0.70;;;7.00;99.90;;;;;;5005905;28;20167;-74
2023/01/08 08:54:01;;;;;;;2.97;0.70;;;7.10;99.90;;;;;;5011979;28;20051;-74
2023/01/08 08:56:28;;;;;;;1.48;0.73;;;7.10;99.90;;;;;;5013220;28;20049;-74
2023/01/08 08:58:56;;;;;;;1.70;0.63;;;7.10;99.90;;;;;;5016819;28;20219;-74
2023/01/08 09:01:23;;;;;;;1.05;0.50;;;7.10;99.90;;;;;;5015557;28;20136;-73
2023/01/08 09:03:50;;;;;;;1.90;0.80;;;7.10;99.90;;;;;;4993330;28;20421;-73
2023/01/08 09:06:17;;;;;;;1.63;0.75;;;7.20;99.90;;;;;;5015217;28;20045;-73
2023/01/08 09:08:44;;;;;;;2.50;0.70;;;7.10;99.90;;;;;;5016593;28;20148;-78
2023/01/08 09:11:11;;;;;;;2.00;0.70;;;7.20;99.90;;;;;;5016758;28;20544;-73
2023/01/08 09:13:40;;;;;;;2.63;0.95;;;7.20;99.90;;;;;;5014850;28;20054;-73
2023/01/08 09:16:06;;;;;;;3.80;0.90;;;7.30;99.90;;;;;;5016805;28;20504;-72
2023/01/08 09:18:33;;;;;;;2.45;0.90;;;7.30;99.90;;;;;;5016446;28;20049;-73
2023/01/08 09:21:04;;;;;;;1.77;0.68;;;7.30;99.90;;;;;;5013175;28;20117;-73
2023/01/08 09:23:32;;;;;;;1.60;0.73;;;7.30;99.90;;;;;;5017098;28;20072;-73
2023/01/08 09:26:03;;;;;;;1.52;0.60;;;7.40;99.90;;;;;;4998379;28;20079;-73
2023/01/08 09:28:30;;;;;;;2.40;0.77;;;7.40;99.90;;;;;;5007165;28;20049;-73
2023/01/08 09:31:01;;;;;;;1.48;0.60;;;7.50;99.90;;;;;;5014461;28;20144;-73
2023/01/08 09:33:28;;;;;;;1.75;0.82;;;7.50;99.90;;;;;;5012526;28;20087;-72
2023/01/08 09:35:55;;;;;;;1.67;0.85;;;7.50;99.90;;;;;;5012207;28;20076;-72
2023/01/08 09:38:22;;;;;;;1.65;0.65;;;7.50;99.90;;;;;;5014198;28;20060;-72
2023/01/08 09:41:00;;;;;;;2.25;0.70;;;7.50;99.90;;;;;;5017674;28;20061;-72
2023/01/08 09:43:28;;;;;;;2.83;0.98;;;7.60;99.90;;;;;;5013098;28;20092;-72
2023/01/08 09:45:56;;;;;;;0.75;0.55;;;7.60;99.90;;;;;;5000585;28;20065;-72
2023/01/08 09:48:25;;;;;;;1.00;0.60;;;7.70;99.90;;;;;;4998237;28;20099;-72
2023/01/08 09:50:52;;;;;;;1.55;0.80;;;7.90;99.90;;;;;;4999184;28;20236;-72
2023/01/08 09:53:18;;;;;;;1.50;0.60;;;8.00;99.90;;;;;;5017419;28;20049;-72
2023/01/08 09:55:58;;;;;;;1.73;0.70;;;8.10;99.90;;;;;;4998679;28;20160;-75
2023/01/08 09:58:49;;;;;;;1.65;0.70;;;8.20;99.90;;;;;;4999208;28;20646;-75
2023/01/08 10:01:18;;;;;;;1.85;0.93;;;8.30;99.90;;;;;;4999797;28;20073;-74
2023/01/08 10:03:47;;;;;;;1.98;0.95;;;8.50;99.90;;;;;;4997231;28;20053;-75
2023/01/08 10:06:15;;;;;;;2.72;1.05;;;8.60;99.90;;;;;;5014936;28;20042;-75
2023/01/08 10:08:43;;;;;;;4.60;1.02;;;8.60;99.90;;;;;;5016833;28;20632;-74
2023/01/08 10:11:12;;;;;;;3.33;0.98;;;8.70;99.90;;;;;;4999654;28;20414;-74
2023/01/08 10:13:40;;;;;;;2.63;1.17;;;8.70;99.90;;;;;;4996867;28;20449;-74
2023/01/08 10:16:11;;;;;;;2.78;0.98;;;8.80;99.90;;;;;;4992026;28;20053;-75
2023/01/08 10:18:40;;;;;;;1.55;0.80;;;8.80;99.90;;;;;;4990153;28;20057;-74
2023/01/08 10:21:11;;;;;;;4.43;1.73;;;8.80;99.90;;;;;;5011994;28;20073;-74
2023/01/08 10:23:48;;;;;;;2.25;1.35;;;8.90;99.90;;;;;;5006209;28;20056;-74
2023/01/08 10:26:25;;;;;;;5.72;1.45;;;9.00;99.90;;;;;;5010509;28;20092;-74
2023/01/08 10:29:08;;;;;;;3.88;1.48;;;9.00;99.90;;;;;;4993372;28;20069;-74
2023/01/08 10:31:44;;;;;;;3.30;1.30;;;9.10;99.90;;;;;;4996298;28;20057;-74
2023/01/08 10:34:14;;;;;;;5.20;1.40;;;9.10;99.90;;;;;;4997528;28;20138;-74
2023/01/08 10:36:41;;;;;;;4.00;1.42;;;9.20;99.90;;;;;;4983740;28;20069;-74
2023/01/08 10:39:17;;;;;;;3.58;1.08;;;9.30;99.90;;;;;;4992963;28;20112;-75
2023/01/08 10:41:44;;;;;;;2.40;0.88;;;9.40;99.90;;;;;;5008521;28;20134;-74
2023/01/08 10:44:15;;;;;;;3.80;1.45;;;9.50;99.90;;;;;;4993399;28;20061;-74
2023/01/08 10:46:43;;;;;;;2.75;0.88;;;9.60;99.90;;;;;;4985092;28;20698;-75
2023/01/08 10:49:28;;;;;;;5.68;1.98;;;9.70;99.90;;;;;;4989266;28;20069;-74
2023/01/08 10:51:55;;;;;;;3.28;1.30;;;9.70;99.90;;;;;;5014073;28;20545;-75
2023/01/08 10:54:36;;;;;;;3.97;1.30;;;9.80;99.90;;;;;;5012429;28;20227;-75
2023/01/08 10:57:17;;;;;;;3.03;1.70;;;9.90;99.90;;;;;;5012701;28;20434;-75
2023/01/08 10:59:44;;;;;;;4.97;1.33;;;10.00;99.90;;;;;;5002202;28;20108;-75
2023/01/08 11:02:28;;;;;;;3.83;1.42;;;10.10;99.90;;;;;;5013637;28;20132;-74
2023/01/08 11:04:55;;;;;;;4.03;1.42;;;10.10;99.90;;;;;;4995846;28;20065;-75
2023/01/08 11:07:22;;;;;;;6.30;1.67;;;10.10;99.90;;;;;;5014967;28;20493;-74
2023/01/08 11:09:50;;;;;;;2.70;1.20;;;10.20;99.90;;;;;;5012733;28;20383;-74
2023/01/08 11:12:38;;;;;;;4.88;1.45;;;10.10;99.90;;;;;;5012726;28;20346;-74
2023/01/08 11:15:07;;;;;;;3.75;1.20;;;10.20;99.90;;;;;;5008949;28;20049;-75
2023/01/08 11:17:34;;;;;;;7.25;2.15;;;10.20;99.90;;;;;;4980126;28;20075;-75
2023/01/08 11:20:22;;;;;;;3.42;1.40;;;10.20;99.90;;;;;;5010131;28;20045;-75
2023/01/08 11:22:49;;;;;;;4.15;1.38;;;10.20;99.90;;;;;;5013337;28;20125;-74
2023/01/08 11:25:24;;;;;;;2.92;1.17;;;10.20;99.90;;;;;;4997314;28;20369;-74
2023/01/08 11:27:51;;;;;;;4.53;1.42;;;10.30;99.90;;;;;;4991555;28;20045;-74
2023/01/08 11:30:22;;;;;;;1.73;0.80;;;10.30;99.90;;;;;;5003075;28;20298;-74
2023/01/08 11:33:05;;;;;;;2.72;1.05;;;10.40;99.90;;;;;;5012734;28;20145;-74
2023/01/08 11:35:43;;;;;;;4.35;1.45;;;10.40;99.90;;;;;;4988507;28;20053;-74
2023/01/08 11:38:11;;;;;;;3.97;1.58;;;10.40;99.90;;;;;;5011975;28;20135;-74
2023/01/08 11:40:46;;;;;;;2.70;1.33;;;10.40;99.90;;;;;;5015817;28;20049;-74
2023/01/08 11:43:29;;;;;;;2.47;1.27;;;10.40;99.90;;;;;;5014628;28;20176;-74
2023/01/08 11:46:19;;;;;;;3.30;1.20;;;10.40;99.90;;;;;;5013207;28;20056;-75
2023/01/08 11:49:14;;;;;;;2.33;1.10;;;10.40;99.90;;;;;;5009855;28;20590;-74
2023/01/08 11:52:06;;;;;;;2.92;1.10;;;10.40;99.90;;;;;;4998092;28;20418;-74
2023/01/08 11:55:06;;;;;;;2.75;1.42;;;10.50;99.90;;;;;;5014095;28;20057;-74
2023/01/08 11:57:42;;;;;;;4.70;1.48;;;10.70;99.90;;;;;;5007718;28;20063;-74
2023/01/08 12:00:39;;;;;;;1.63;0.90;;;11.00;99.90;;;;;;5014121;28;20053;-74
2023/01/08 12:03:38;;;;;;;3.20;1.10;;;11.00;99.90;;;;;;5014413;28;20064;-74
2023/01/08 12:06:31;;;;;;;4.32;1.95;;;11.00;99.90;;;;;;5002192;28;20046;-74
2023/01/08 12:09:20;;;;;;;5.25;1.25;;;11.10;99.90;;;;;;4987340;28;20083;-74
2023/01/08 12:11:59;;;;;;;3.42;1.38;;;11.20;99.90;;;;;;5016377;28;20140;-74
2023/01/08 12:14:31;;;;;;;3.20;1.20;;;11.30;99.90;;;;;;5016189;28;20191;-74
2023/01/08 12:17:14;;;;;;;3.00;1.65;;;11.30;99.90;;;;;;5015739;28;20053;-74
2023/01/08 12:19:56;;;;;;;3.80;1.53;;;11.20;99.90;;;;;;5014567;28;20374;-74
2023/01/08 12:22:37;;;;;;;5.13;1.55;;;11.10;99.90;;;;;;5017267;28;20169;-74
2023/01/08 12:25:25;;;;;;;5.40;1.48;;;11.00;99.90;;;;;;5009221;28;20134;-74
2023/01/08 12:28:29;;;;;;;3.38;1.55;;;11.10;99.90;;;;;;5015308;28;20054;-74
2023/01/08 12:31:37;;;;;;;5.03;1.55;;;11.40;99.90;;;;;;5012885;28;20072;-74
2023/01/08 12:34:15;;;;;;;3.05;1.33;;;11.40;99.90;;;;;;5009349;28;20076;-74
2023/01/08 12:36:45;;;;;;;3.25;1.65;;;11.40;99.90;;;;;;4996876;28;20746;-74
2023/01/08 12:39:20;;;;;;;3.83;1.33;;;11.40;99.90;;;;;;5012792;28;20485;-74
2023/01/08 12:41:47;;;;;;;3.30;1.80;;;11.40;99.90;;;;;;5014671;28;20119;-74
2023/01/08 12:44:16;;;;;;;2.88;1.15;;;11.20;99.90;;;;;;5008688;28;20061;-74
2023/01/08 12:46:46;;;;;;;4.80;1.20;;;11.10;99.90;;;;;;4996877;28;20045;-74
2023/01/08 12:49:16;;;;;;;3.78;1.73;;;11.00;99.90;;;;;;4998358;28;20057;-74
2023/01/08 12:51:53;;;;;;;4.07;1.67;;;11.00;99.90;;;;;;4999337;28;20091;-74
2023/01/08 12:54:34;;;;;;;4.20;1.70;;;11.00;99.90;;;;;;5011991;28;20565;-74
2023/01/08 12:57:12;;;;;;;4.00;1.58;;;11.00;99.90;;;;;;5015253;28;20543;-74
2023/01/08 12:59:55;;;;;;;4.03;1.58;;;11.10;99.90;;;;;;4998776;28;20128;-74
2023/01/08 13:02:43;;;;;;;4.72;2.08;;;11.10;99.90;;;;;;5014933;28;20053;-74
2023/01/08 13:05:11;;;;;;;4.40;1.17;;;11.10;99.90;;;;;;5005822;28;20431;-74
2023/01/08 13:08:07;;;;;;;2.55;1.25;;;10.90;99.90;;;;;;5013484;28;20412;-74
2023/01/08 13:10:36;;;;;;;3.10;1.23;;;10.90;99.90;;;;;;4998290;28;20505;-74
2023/01/08 13:13:04;;;;;;;5.07;1.50;;;10.70;99.90;;;;;;5014016;28;20049;-74
2023/01/08 13:15:31;;;;;;;3.83;1.60;;;10.50;99.90;;;;;;4988052;28;20438;-74